Time;durP1;ratioP1;P1;durP2;ratioP2;P2;SDS_P1;SDS_P2;PMS_P1;PMS_P2;Temp;Humidity;BMP_temperature;BMP_pressure;BME280_temperature;BME280_humidity;BME280_pressure;Samples;Min_cycle;Max_cycle;Signal;HPM_P1;HPM_P2
2023/10/17 00:02:34;;;;;;;224.40;54.27;;;;;;;;;;4972945;28;20178;-47
2023/10/17 00:04:53;;;;;;;219.57;54.97;;;;;;;;;;4964733;28;20573;-46
2023/10/17 00:07:20;;;;;;;219.52;54.10;;;;;;;;;;4972750;28;20666;-46
2023/10/17 00:09:48;;;;;;;221.23;55.63;;;;;;;;;;4973223;28;20203;-47
2023/10/17 00:14:57;;;;;;;222.00;55.20;;;;;;;;;;4972716;28;20574;-46
2023/10/17 00:17:23;;;;;;;224.35;57.13;;;;;;;;;;4969982;28;20481;-47
2023/10/17 00:19:49;;;;;;;220.67;54.30;;;;;;;;;;4972639;28;20405;-46
2023/10/17 00:22:18;;;;;;;220.73;54.40;;;;;;;;;;4972720;28;20419;-45
2023/10/17 00:24:46;;;;;;;225.25;58.40;;;;;;;;;;4972495;28;20497;-47
2023/10/17 00:27:12;;;;;;;221.40;54.08;;;;;;;;;;4972785;28;20180;-48
2023/10/17 00:29:38;;;;;;;224.75;56.40;;;;;;;;;;4972671;28;20210;-46
2023/10/17 00:32:08;;;;;;;224.27;56.03;;;;;;;;;;4974491;28;21598;-47
2023/10/17 00:34:34;;;;;;;223.15;57.60;;;;;;;;;;4976354;28;20939;-46
2023/10/17 00:37:10;;;;;;;220.77;55.40;;;;;;;;;;4976704;28;20584;-46
2023/10/17 00:39:37;;;;;;;223.10;56.22;;;;;;;;;;4976664;28;20632;-47
2023/10/17 00:44:30;;;;;;;227.32;60.35;;;;;;;;;;4975065;28;20197;-47
2023/10/17 00:46:59;;;;;;;222.57;56.47;;;;;;;;;;4976231;28;20695;-46
2023/10/17 00:49:26;;;;;;;222.60;54.97;;;;;;;;;;4976216;28;20474;-46
2023/10/17 00:51:55;;;;;;;221.73;55.75;;;;;;;;;;4976256;28;20693;-46
2023/10/17 00:54:24;;;;;;;219.95;53.03;;;;;;;;;;4975880;28;20222;-47
2023/10/17 00:56:50;;;;;;;223.32;56.00;;;;;;;;;;4976300;28;20171;-46
2023/10/17 00:59:16;;;;;;;221.25;53.55;;;;;;;;;;4976121;28;20257;-46
2023/10/17 01:01:42;;;;;;;224.87;57.00;;;;;;;;;;4975456;28;20210;-46
2023/10/17 01:04:13;;;;;;;223.97;56.10;;;;;;;;;;4975276;28;20436;-47
2023/10/17 01:06:39;;;;;;;222.65;55.25;;;;;;;;;;4975527;28;20434;-46
2023/10/17 01:09:17;;;;;;;218.60;53.73;;;;;;;;;;4975724;28;20650;-47
2023/10/17 01:11:43;;;;;;;224.15;56.95;;;;;;;;;;4976312;28;20457;-47
2023/10/17 01:14:09;;;;;;;221.80;54.60;;;;;;;;;;4975578;28;20203;-46
2023/10/17 01:16:36;;;;;;;223.10;57.20;;;;;;;;;;4975893;28;20175;-48
2023/10/17 01:19:04;;;;;;;226.63;60.97;;;;;;;;;;4975951;28;20489;-46
2023/10/17 01:21:30;;;;;;;223.07;55.70;;;;;;;;;;4975944;28;20267;-46
2023/10/17 01:23:57;;;;;;;222.10;55.33;;;;;;;;;;4975514;28;20199;-47
2023/10/17 01:26:26;;;;;;;221.98;55.53;;;;;;;;;;4975701;28;20529;-46
2023/10/17 01:28:53;;;;;;;221.63;55.83;;;;;;;;;;4975798;28;20177;-46
2023/10/17 01:31:22;;;;;;;223.98;56.47;;;;;;;;;;4975631;28;20207;-46
2023/10/17 01:33:51;;;;;;;225.85;58.55;;;;;;;;;;4971798;28;20296;-47
2023/10/17 01:36:19;;;;;;;221.25;55.15;;;;;;;;;;4975579;28;20196;-47
2023/10/17 01:38:45;;;;;;;221.98;55.50;;;;;;;;;;4967577;28;20196;-47
2023/10/17 01:41:12;;;;;;;222.75;57.03;;;;;;;;;;4975545;28;20195;-46
2023/10/17 01:43:45;;;;;;;222.00;56.00;;;;;;;;;;4973765;28;20230;-47
2023/10/17 01:46:17;;;;;;;220.10;53.03;;;;;;;;;;4975582;28;20171;-47
2023/10/17 01:48:46;;;;;;;221.57;56.55;;;;;;;;;;4975476;28;20177;-46
2023/10/17 01:51:15;;;;;;;222.45;54.65;;;;;;;;;;4975285;28;20168;-47
2023/10/17 01:53:43;;;;;;;223.93;55.90;;;;;;;;;;4974733;28;20213;-47
2023/10/17 01:56:15;;;;;;;225.70;55.63;;;;;;;;;;4975207;28;20253;-46
2023/10/17 01:58:51;;;;;;;227.23;57.83;;;;;;;;;;4975245;28;20174;-45
2023/10/17 02:01:29;;;;;;;228.98;59.95;;;;;;;;;;4975140;28;20664;-47
2023/10/17 02:04:14;;;;;;;223.75;55.33;;;;;;;;;;4968248;28;20192;-47
2023/10/17 02:06:42;;;;;;;226.05;57.33;;;;;;;;;;4974962;28;20344;-46
2023/10/17 02:11:54;;;;;;;224.95;57.83;;;;;;;;;;4967865;28;20202;-47
2023/10/17 02:14:21;;;;;;;224.32;52.55;;;;;;;;;;4974647;28;20313;-46
2023/10/17 02:16:48;;;;;;;220.25;54.05;;;;;;;;;;4974871;28;20170;-46
2023/10/17 02:19:14;;;;;;;219.98;54.28;;;;;;;;;;4975001;28;20453;-46
2023/10/17 02:21:43;;;;;;;219.37;53.57;;;;;;;;;;4974780;28;20680;-47
2023/10/17 02:24:09;;;;;;;218.43;53.03;;;;;;;;;;4974340;28;20977;-47
2023/10/17 02:26:54;;;;;;;219.03;54.23;;;;;;;;;;4974691;28;20192;-45
2023/10/17 02:29:24;;;;;;;218.23;53.13;;;;;;;;;;4974629;28;20886;-45
2023/10/17 02:31:52;;;;;;;222.80;58.10;;;;;;;;;;4974877;28;20285;-46
2023/10/17 02:34:22;;;;;;;223.00;57.15;;;;;;;;;;4974350;28;20190;-45
2023/10/17 02:36:48;;;;;;;220.55;53.92;;;;;;;;;;4966966;28;20173;-46
2023/10/17 02:39:14;;;;;;;223.47;56.63;;;;;;;;;;4974473;28;20170;-47
2023/10/17 02:41:45;;;;;;;221.67;55.13;;;;;;;;;;4974303;28;20441;-47
2023/10/17 02:44:13;;;;;;;223.90;57.70;;;;;;;;;;4972845;28;20442;-45
2023/10/17 02:46:41;;;;;;;222.07;57.88;;;;;;;;;;4974317;28;20187;-47
2023/10/17 02:49:07;;;;;;;222.40;57.55;;;;;;;;;;4972858;28;20184;-46
2023/10/17 02:51:33;;;;;;;221.73;53.72;;;;;;;;;;4973997;28;20289;-47
2023/10/17 02:54:05;;;;;;;219.52;54.45;;;;;;;;;;4973489;28;20248;-46
2023/10/17 02:56:36;;;;;;;220.63;54.35;;;;;;;;;;4972251;28;20171;-47
2023/10/17 02:59:10;;;;;;;219.98;53.90;;;;;;;;;;4974066;28;20676;-47
2023/10/17 03:01:37;;;;;;;219.75;53.83;;;;;;;;;;4974068;28;20646;-46
2023/10/17 03:04:11;;;;;;;228.32;68.80;;;;;;;;;;4973981;28;20230;-47
2023/10/17 03:06:39;;;;;;;217.85;54.92;;;;;;;;;;4973871;28;20181;-46
2023/10/17 03:11:49;;;;;;;220.38;56.30;;;;;;;;;;4973808;28;20228;-47
2023/10/17 03:14:19;;;;;;;222.65;58.58;;;;;;;;;;4973494;28;20301;-47
2023/10/17 03:16:52;;;;;;;214.95;53.05;;;;;;;;;;4966188;28;20534;-46
2023/10/17 03:19:18;;;;;;;217.18;54.30;;;;;;;;;;4973819;28;20175;-45
2023/10/17 03:21:44;;;;;;;222.65;57.97;;;;;;;;;;4965647;28;20177;-48
2023/10/17 03:24:13;;;;;;;221.73;57.00;;;;;;;;;;4973319;28;20217;-48
2023/10/17 03:26:39;;;;;;;219.05;55.45;;;;;;;;;;4973539;28;20572;-46
2023/10/17 03:29:14;;;;;;;219.13;54.95;;;;;;;;;;4973607;28;20182;-46
2023/10/17 03:31:42;;;;;;;218.35;55.33;;;;;;;;;;4973444;28;20301;-47
2023/10/17 03:34:12;;;;;;;219.63;55.70;;;;;;;;;;4973247;28;20189;-46
2023/10/17 03:36:41;;;;;;;218.88;53.90;;;;;;;;;;4973388;28;20270;-46
2023/10/17 03:39:21;;;;;;;223.60;58.58;;;;;;;;;;4973203;28;20253;-47
2023/10/17 03:41:48;;;;;;;222.05;56.83;;;;;;;;;;4965804;28;20181;-46
2023/10/17 03:44:17;;;;;;;220.07;55.90;;;;;;;;;;4972916;28;20191;-47
2023/10/17 03:46:46;;;;;;;219.93;54.88;;;;;;;;;;4973315;28;20174;-47
2023/10/17 03:49:17;;;;;;;222.50;55.28;;;;;;;;;;4973237;28;20175;-47
2023/10/17 03:51:46;;;;;;;219.82;52.47;;;;;;;;;;4973538;28;20187;-47
2023/10/17 03:54:17;;;;;;;218.63;52.60;;;;;;;;;;4972869;28;20553;-48
2023/10/17 03:56:49;;;;;;;218.07;53.00;;;;;;;;;;4973316;28;20232;-48
2023/10/17 04:01:41;;;;;;;223.47;53.50;;;;;;;;;;4973440;28;20321;-46
2023/10/17 04:04:08;;;;;;;232.50;68.40;;;;;;;;;;4972657;28;20521;-47
2023/10/17 04:06:35;;;;;;;222.23;54.85;;;;;;;;;;4972154;28;20309;-46
2023/10/17 04:11:46;;;;;;;221.90;55.58;;;;;;;;;;4972772;28;20202;-47
2023/10/17 04:14:13;;;;;;;224.35;56.00;;;;;;;;;;4972671;28;20197;-47
2023/10/17 04:16:39;;;;;;;218.95;53.47;;;;;;;;;;4972674;28;20217;-46
2023/10/17 04:19:16;;;;;;;222.75;56.15;;;;;;;;;;4972872;28;20203;-47
2023/10/17 04:21:51;;;;;;;221.60;54.97;;;;;;;;;;4972927;28;20216;-46
2023/10/17 04:24:36;;;;;;;221.55;56.13;;;;;;;;;;4972561;28;20792;-47
2023/10/17 04:29:42;;;;;;;221.32;54.55;;;;;;;;;;4972965;28;20186;-46
2023/10/17 04:32:14;;;;;;;220.32;55.33;;;;;;;;;;4972651;28;20197;-47
2023/10/17 04:34:46;;;;;;;220.38;56.30;;;;;;;;;;4972441;28;20211;-47
2023/10/17 04:37:31;;;;;;;219.63;53.67;;;;;;;;;;4972704;28;20178;-46
2023/10/17 04:39:58;;;;;;;218.18;53.67;;;;;;;;;;4966438;28;20699;-46
2023/10/17 04:45:14;;;;;;;226.05;55.75;;;;;;;;;;4967969;28;20248;-45
2023/10/17 04:47:43;;;;;;;223.02;58.55;;;;;;;;;;4972070;28;20204;-46
2023/10/17 04:50:12;;;;;;;218.60;54.83;;;;;;;;;;4972593;28;20178;-45
2023/10/17 04:52:44;;;;;;;221.15;55.80;;;;;;;;;;4972107;28;20207;-47
2023/10/17 04:55:29;;;;;;;219.55;54.95;;;;;;;;;;4973203;28;20221;-47
2023/10/17 04:57:59;;;;;;;215.65;54.50;;;;;;;;;;4966099;28;20170;-46
2023/10/17 05:00:43;;;;;;;216.90;54.15;;;;;;;;;;4972455;28;20199;-45
2023/10/17 05:03:14;;;;;;;216.30;53.97;;;;;;;;;;4972663;28;20174;-46
2023/10/17 05:06:00;;;;;;;213.82;52.38;;;;;;;;;;4972294;28;20212;-46
2023/10/17 05:08:32;;;;;;;214.82;53.10;;;;;;;;;;4972594;28;20190;-46
2023/10/17 06:16:59;;;;;;;215.70;54.53;;;;;;;;;;4968984;28;20225;-48
2023/10/17 06:19:27;;;;;;;218.13;57.25;;;;;;;;;;4974764;28;20177;-46
2023/10/17 06:27:11;;;;;;;216.20;53.88;;;;;;;;;;4974161;28;20246;-46
2023/10/17 06:32:16;;;;;;;212.57;52.37;;;;;;;;;;4973588;28;20230;-47
2023/10/17 06:34:45;;;;;;;215.75;53.50;;;;;;;;;;4973678;28;20801;-46
2023/10/17 06:37:11;;;;;;;217.45;56.15;;;;;;;;;;4973734;28;20167;-45
2023/10/17 06:39:37;;;;;;;217.20;55.35;;;;;;;;;;4973980;28;20171;-46
2023/10/17 06:42:14;;;;;;;218.50;58.22;;;;;;;;;;4973567;28;20171;-46
2023/10/17 06:44:51;;;;;;;216.75;56.45;;;;;;;;;;4973329;28;20210;-48
2023/10/17 06:47:17;;;;;;;215.30;54.28;;;;;;;;;;4973606;28;20673;-47
2023/10/17 06:52:19;;;;;;;220.30;59.07;;;;;;;;;;4973394;28;20211;-46
2023/10/17 06:54:58;;;;;;;216.23;54.58;;;;;;;;;;4965707;28;20427;-46
2023/10/17 06:57:33;;;;;;;217.88;56.85;;;;;;;;;;4974242;28;20176;-47
2023/10/17 07:00:16;;;;;;;215.80;54.67;;;;;;;;;;4974247;28;20173;-47
2023/10/17 07:02:48;;;;;;;214.75;53.30;;;;;;;;;;4973918;28;20199;-46
2023/10/17 07:05:14;;;;;;;216.73;55.70;;;;;;;;;;4973860;28;20188;-46
2023/10/17 07:07:44;;;;;;;217.35;54.38;;;;;;;;;;4973842;28;20302;-46
2023/10/17 07:10:17;;;;;;;213.80;51.95;;;;;;;;;;4973937;28;20171;-46
2023/10/17 07:12:50;;;;;;;217.70;54.75;;;;;;;;;;4973925;28;20562;-46
2023/10/17 07:15:19;;;;;;;216.32;54.70;;;;;;;;;;4970440;28;20737;-47
2023/10/17 07:17:50;;;;;;;218.85;55.70;;;;;;;;;;4971304;28;20630;-46
2023/10/17 07:21:08;;;;;;;217.70;55.17;;;;;;;;;;4973746;28;20175;-46
2023/10/17 07:23:13;;;;;;;222.48;58.47;;;;;;;;;;4967546;28;20180;-46
2023/10/17 07:25:39;;;;;;;219.43;55.72;;;;;;;;;;4973455;28;20568;-47
2023/10/17 07:28:06;;;;;;;219.00;53.60;;;;;;;;;;4973628;28;20218;-46
2023/10/17 07:30:49;;;;;;;219.88;57.97;;;;;;;;;;4973488;28;20446;-46
2023/10/17 07:33:17;;;;;;;223.27;58.33;;;;;;;;;;4973234;28;20610;-46
2023/10/17 07:35:43;;;;;;;220.25;55.45;;;;;;;;;;4973585;28;20272;-46
2023/10/17 07:38:13;;;;;;;217.20;53.13;;;;;;;;;;4973385;28;20596;-46
2023/10/17 07:43:07;;;;;;;224.43;57.78;;;;;;;;;;4972942;28;20284;-46
2023/10/17 07:45:38;;;;;;;224.75;60.20;;;;;;;;;;4973382;28;20680;-46
2023/10/17 07:48:15;;;;;;;221.73;56.05;;;;;;;;;;4973251;28;20179;-46
2023/10/17 07:50:41;;;;;;;220.73;55.10;;;;;;;;;;4973196;28;20173;-47
2023/10/17 07:53:07;;;;;;;220.77;56.37;;;;;;;;;;4972801;28;20304;-47
2023/10/17 07:55:36;;;;;;;222.70;58.07;;;;;;;;;;4972736;28;20435;-48
2023/10/17 07:58:09;;;;;;;222.55;56.95;;;;;;;;;;4967429;28;21076;-47
2023/10/17 08:00:36;;;;;;;224.43;60.35;;;;;;;;;;4973274;28;20208;-48
2023/10/17 08:03:19;;;;;;;227.43;60.55;;;;;;;;;;4972337;28;20181;-46
2023/10/17 08:08:41;;;;;;;224.82;59.88;;;;;;;;;;4973045;28;20272;-47
2023/10/17 08:11:19;;;;;;;219.93;56.03;;;;;;;;;;4973383;28;20256;-47
2023/10/17 08:13:45;;;;;;;228.38;62.17;;;;;;;;;;4964637;28;20192;-47
2023/10/17 08:16:23;;;;;;;221.27;58.30;;;;;;;;;;4972891;28;20638;-47
2023/10/17 08:18:55;;;;;;;224.35;59.97;;;;;;;;;;4965374;28;20402;-47
2023/10/17 08:21:33;;;;;;;221.35;56.80;;;;;;;;;;4972688;28;20178;-47
2023/10/17 08:24:00;;;;;;;225.95;62.00;;;;;;;;;;4972184;28;20198;-47
2023/10/17 08:26:31;;;;;;;223.98;59.72;;;;;;;;;;4970624;28;20712;-46
2023/10/17 08:28:57;;;;;;;225.23;60.75;;;;;;;;;;4972913;28;20252;-45
2023/10/17 08:31:23;;;;;;;225.63;64.10;;;;;;;;;;4972537;28;20260;-46
2023/10/17 08:36:27;;;;;;;222.07;58.80;;;;;;;;;;4972225;28;20959;-45
2023/10/17 08:38:54;;;;;;;222.13;57.50;;;;;;;;;;4972858;28;20228;-48
2023/10/17 08:41:23;;;;;;;221.40;61.15;;;;;;;;;;4972571;28;20216;-45
2023/10/17 08:43:49;;;;;;;221.85;59.25;;;;;;;;;;4975129;28;20277;-45
2023/10/17 08:46:17;;;;;;;225.57;61.85;;;;;;;;;;4974679;28;20580;-46
2023/10/17 08:48:44;;;;;;;222.32;58.38;;;;;;;;;;4972545;28;20165;-46
2023/10/17 08:51:12;;;;;;;225.48;59.22;;;;;;;;;;4969099;28;20181;-46
2023/10/17 08:53:39;;;;;;;224.88;60.70;;;;;;;;;;4974093;28;20613;-45
2023/10/17 08:56:07;;;;;;;221.40;56.75;;;;;;;;;;4975844;28;20177;-45
2023/10/17 08:58:36;;;;;;;227.80;63.10;;;;;;;;;;4975492;28;20662;-45
2023/10/17 09:01:14;;;;;;;223.30;57.47;;;;;;;;;;4975587;28;20182;-47
2023/10/17 09:03:46;;;;;;;230.65;63.75;;;;;;;;;;4974683;28;20210;-46
2023/10/17 09:12:01;;;;;;;237.47;70.40;;;;;;;;;;4947547;28;20224;-47
2023/10/17 09:14:29;;;;;;;240.57;71.20;;;;;;;;;;4975662;28;20425;-46
2023/10/17 09:17:03;;;;;;;239.07;74.90;;;;;;;;;;4974926;28;20980;-48
2023/10/17 09:19:38;;;;;;;245.17;82.10;;;;;;;;;;4976173;28;20439;-47
2023/10/17 09:22:05;;;;;;;242.67;81.47;;;;;;;;;;4976298;28;20409;-47
2023/10/17 09:24:35;;;;;;;244.67;83.63;;;;;;;;;;4975689;28;20430;-47
2023/10/17 09:27:06;;;;;;;243.10;86.10;;;;;;;;;;4975916;28;20413;-47
2023/10/17 09:29:41;;;;;;;244.80;87.50;;;;;;;;;;4976030;28;20436;-47
2023/10/17 09:32:08;;;;;;;244.97;90.87;;;;;;;;;;4975441;28;20458;-47
2023/10/17 09:34:35;;;;;;;245.07;91.10;;;;;;;;;;4975409;28;20519;-47
2023/10/17 09:37:04;;;;;;;245.33;90.80;;;;;;;;;;4974687;28;20409;-48
2023/10/17 09:39:33;;;;;;;253.30;99.63;;;;;;;;;;4973895;28;20397;-48
2023/10/17 09:41:58;;;;;;;252.87;100.80;;;;;;;;;;4974156;28;20432;-48
2023/10/17 09:44:24;;;;;;;251.00;102.07;;;;;;;;;;4964998;28;20492;-48
2023/10/17 09:46:54;;;;;;;247.27;97.43;;;;;;;;;;4973420;28;20414;-47
2023/10/17 09:49:21;;;;;;;247.73;97.40;;;;;;;;;;4975248;28;20951;-47
2023/10/17 09:51:48;;;;;;;251.57;105.13;;;;;;;;;;4975291;28;20474;-47
2023/10/17 09:54:15;;;;;;;250.77;104.73;;;;;;;;;;4975229;28;20441;-48
2023/10/17 09:56:43;;;;;;;247.97;99.77;;;;;;;;;;4975202;28;20412;-47
2023/10/17 09:59:12;;;;;;;249.13;100.43;;;;;;;;;;4975217;28;20405;-47
2023/10/17 10:01:39;;;;;;;251.87;105.07;;;;;;;;;;4975212;28;20479;-48
2023/10/17 10:04:07;;;;;;;250.37;104.03;;;;;;;;;;4968257;28;20983;-47
2023/10/17 10:06:33;;;;;;;251.27;106.50;;;;;;;;;;4975209;28;20428;-47
2023/10/17 10:09:26;;;;;;;252.27;110.47;;;;;;;;;;4975148;28;20548;-47
2023/10/17 10:11:49;;;;;;;255.03;114.00;;;;;;;;;;4969585;28;20534;-48
2023/10/17 10:14:36;;;;;;;250.57;108.30;;;;;;;;;;4974753;28;20476;-48
2023/10/17 10:17:03;;;;;;;252.03;109.80;;;;;;;;;;4969548;28;20783;-48
2023/10/17 10:19:41;;;;;;;251.53;108.90;;;;;;;;;;4974886;28;20405;-47
2023/10/17 10:22:12;;;;;;;253.13;111.40;;;;;;;;;;4974852;28;20917;-48
2023/10/17 10:24:39;;;;;;;249.37;106.17;;;;;;;;;;4974516;28;20907;-48
2023/10/17 10:27:15;;;;;;;256.10;116.83;;;;;;;;;;4974849;28;20437;-47
2023/10/17 10:29:42;;;;;;;247.80;104.30;;;;;;;;;;4974724;28;20404;-48
2023/10/17 10:32:26;;;;;;;245.03;103.03;;;;;;;;;;4974540;28;20449;-54
2023/10/17 10:34:52;;;;;;;247.00;105.43;;;;;;;;;;4974390;28;20436;-48
2023/10/17 10:37:21;;;;;;;249.20;109.27;;;;;;;;;;4978948;28;20591;-47
2023/10/17 10:40:16;;;;;;;252.67;117.17;;;;;;;;;;4980252;28;20514;-48
2023/10/17 10:42:47;;;;;;;253.33;113.43;;;;;;;;;;4974123;28;20824;-48
2023/10/17 10:45:47;;;;;;;250.10;110.23;;;;;;;;;;4974374;28;20806;-48
2023/10/17 10:48:17;;;;;;;251.43;112.30;;;;;;;;;;4967323;28;20420;-47
2023/10/17 10:50:44;;;;;;;248.43;107.30;;;;;;;;;;4974402;28;20440;-47
2023/10/17 10:53:27;;;;;;;254.17;118.40;;;;;;;;;;4973762;28;20840;-48
2023/10/17 10:56:00;;;;;;;251.20;110.70;;;;;;;;;;4975106;28;20405;-46
2023/10/17 10:58:27;;;;;;;250.87;108.60;;;;;;;;;;4973575;28;20401;-47
2023/10/17 11:00:58;;;;;;;247.87;106.27;;;;;;;;;;4973600;28;20495;-47
2023/10/17 11:03:24;;;;;;;249.27;109.17;;;;;;;;;;4973529;28;20409;-47
2023/10/17 11:05:52;;;;;;;252.50;111.33;;;;;;;;;;4973618;28;20420;-46
2023/10/17 11:08:18;;;;;;;250.47;110.40;;;;;;;;;;4973722;28;20425;-47
2023/10/17 11:10:44;;;;;;;249.57;107.60;;;;;;;;;;4974200;28;20834;-47
2023/10/17 11:13:11;;;;;;;252.77;116.10;;;;;;;;;;4973575;28;20999;-46
2023/10/17 11:15:39;;;;;;;247.20;105.30;;;;;;;;;;4973513;28;20429;-47
2023/10/17 11:18:07;;;;;;;247.87;106.50;;;;;;;;;;4974018;28;20520;-47
2023/10/17 11:20:34;;;;;;;246.80;105.93;;;;;;;;;;4974092;28;20409;-46
2023/10/17 11:23:02;;;;;;;253.70;115.23;;;;;;;;;;4973427;28;20500;-47
2023/10/17 11:25:31;;;;;;;248.57;111.97;;;;;;;;;;4973883;28;20440;-46
2023/10/17 11:28:06;;;;;;;257.17;116.33;;;;;;;;;;4971516;28;20413;-47
2023/10/17 11:30:33;;;;;;;249.60;110.10;;;;;;;;;;4972796;28;20431;-46
2023/10/17 11:33:04;;;;;;;255.07;114.03;;;;;;;;;;4971667;28;20563;-47
2023/10/17 11:35:30;;;;;;;245.60;107.50;;;;;;;;;;4972762;28;20945;-47
2023/10/17 11:37:57;;;;;;;244.97;103.13;;;;;;;;;;4973456;28;20420;-48
2023/10/17 11:40:38;;;;;;;252.67;114.27;;;;;;;;;;4971873;28;20416;-48
2023/10/17 11:43:14;;;;;;;251.13;110.23;;;;;;;;;;4973215;28;20444;-47
2023/10/17 11:45:41;;;;;;;249.37;108.10;;;;;;;;;;4973350;28;20495;-48
2023/10/17 11:48:26;;;;;;;249.93;108.17;;;;;;;;;;4991298;28;20416;-47
2023/10/17 11:51:03;;;;;;;249.13;107.50;;;;;;;;;;4973227;28;20409;-46
2023/10/17 11:53:30;;;;;;;251.43;110.60;;;;;;;;;;4953745;29;20464;-47
2023/10/17 11:55:56;;;;;;;247.00;104.97;;;;;;;;;;4972107;28;20425;-48
2023/10/17 11:58:25;;;;;;;248.43;106.63;;;;;;;;;;4973229;28;20935;-46
2023/10/17 12:00:51;;;;;;;249.27;105.77;;;;;;;;;;4973601;28;20932;-46
2023/10/17 12:03:20;;;;;;;246.70;100.30;;;;;;;;;;4972559;28;20416;-47
2023/10/17 12:05:47;;;;;;;251.77;109.80;;;;;;;;;;4973016;28;20434;-47
2023/10/17 12:08:22;;;;;;;245.10;96.70;;;;;;;;;;4973218;28;20504;-46
2023/10/17 12:10:53;;;;;;;254.93;113.40;;;;;;;;;;4973323;28;20414;-46
2023/10/17 12:13:19;;;;;;;249.13;104.67;;;;;;;;;;4973254;28;20462;-47
2023/10/17 12:15:45;;;;;;;248.33;104.97;;;;;;;;;;4972881;28;20432;-47
2023/10/17 12:18:12;;;;;;;245.40;98.80;;;;;;;;;;4972985;28;20921;-48
2023/10/17 12:20:40;;;;;;;245.57;99.10;;;;;;;;;;4972948;28;20419;-46
2023/10/17 12:23:13;;;;;;;245.97;102.67;;;;;;;;;;4973152;28;20419;-46
2023/10/17 12:25:42;;;;;;;244.40;100.40;;;;;;;;;;4969555;28;20595;-46
2023/10/17 12:28:08;;;;;;;248.40;106.97;;;;;;;;;;4972013;28;20424;-48
2023/10/17 12:30:39;;;;;;;247.87;105.03;;;;;;;;;;4972739;28;20432;-46
2023/10/17 12:33:05;;;;;;;249.07;104.40;;;;;;;;;;4972566;28;20468;-46
2023/10/17 12:35:31;;;;;;;251.57;111.70;;;;;;;;;;4972746;28;20443;-47
2023/10/17 12:37:59;;;;;;;249.03;108.77;;;;;;;;;;4972945;28;20451;-48
2023/10/17 12:40:25;;;;;;;250.37;110.00;;;;;;;;;;4972627;28;20506;-47
2023/10/17 12:42:51;;;;;;;242.00;107.63;;;;;;;;;;4972456;28;20449;-46
2023/10/17 12:45:18;;;;;;;239.37;105.27;;;;;;;;;;4972682;28;20729;-48
2023/10/17 12:47:45;;;;;;;242.17;109.83;;;;;;;;;;4972640;28;20434;-47
2023/10/17 12:50:12;;;;;;;240.17;105.03;;;;;;;;;;4972673;28;20417;-47
2023/10/17 12:52:38;;;;;;;246.47;113.83;;;;;;;;;;4972207;28;20580;-47
2023/10/17 12:55:05;;;;;;;248.20;113.27;;;;;;;;;;4972345;28;20933;-48
2023/10/17 12:57:31;;;;;;;243.63;111.87;;;;;;;;;;4972640;28;20421;-48
2023/10/17 12:59:59;;;;;;;241.67;107.80;;;;;;;;;;4972736;28;20417;-47
2023/10/17 13:02:29;;;;;;;246.47;112.87;;;;;;;;;;4972071;28;20551;-46
2023/10/17 13:04:55;;;;;;;244.40;106.07;;;;;;;;;;4970512;28;20849;-47
2023/10/17 13:07:23;;;;;;;247.73;113.37;;;;;;;;;;4970592;28;20925;-47
2023/10/17 13:09:49;;;;;;;244.30;106.80;;;;;;;;;;4970684;28;20754;-48
2023/10/17 13:12:14;;;;;;;240.73;106.10;;;;;;;;;;4971810;28;20488;-46
2023/10/17 13:14:41;;;;;;;241.97;108.83;;;;;;;;;;4972252;28;20459;-47
2023/10/17 13:17:11;;;;;;;240.50;105.70;;;;;;;;;;4972310;28;20413;-48
2023/10/17 13:19:42;;;;;;;239.33;103.83;;;;;;;;;;4972548;28;20492;-47
2023/10/17 13:22:14;;;;;;;238.07;102.67;;;;;;;;;;4972363;28;20807;-48
2023/10/17 13:24:40;;;;;;;237.80;103.20;;;;;;;;;;4972139;28;20483;-47
2023/10/17 13:27:06;;;;;;;240.47;108.33;;;;;;;;;;4972328;28;20416;-47
2023/10/17 13:29:32;;;;;;;242.53;109.77;;;;;;;;;;4972295;28;20424;-47
2023/10/17 13:32:00;;;;;;;242.87;108.90;;;;;;;;;;4972301;28;20816;-48
2023/10/17 13:34:28;;;;;;;239.40;104.43;;;;;;;;;;4972114;28;20453;-47
2023/10/17 13:36:54;;;;;;;252.20;119.77;;;;;;;;;;4970550;28;20413;-46
2023/10/17 13:39:22;;;;;;;243.37;110.73;;;;;;;;;;4971968;28;20916;-48
2023/10/17 13:41:48;;;;;;;248.93;112.13;;;;;;;;;;4976008;28;20924;-47
2023/10/17 13:44:15;;;;;;;239.10;105.63;;;;;;;;;;4982782;28;20532;-47
2023/10/17 13:46:41;;;;;;;235.40;99.27;;;;;;;;;;4975307;28;20419;-48
2023/10/17 13:49:08;;;;;;;235.50;97.30;;;;;;;;;;4973972;28;20413;-48
2023/10/17 13:51:35;;;;;;;240.97;104.03;;;;;;;;;;4975426;28;20408;-47
2023/10/17 13:54:01;;;;;;;238.97;100.43;;;;;;;;;;4975394;28;20514;-47
2023/10/17 13:56:27;;;;;;;237.13;97.93;;;;;;;;;;4975432;28;20418;-47
2023/10/17 13:58:55;;;;;;;240.57;102.80;;;;;;;;;;4975477;28;20425;-47
2023/10/17 14:01:29;;;;;;;239.87;100.20;;;;;;;;;;4975903;28;20436;-47
2023/10/17 14:03:58;;;;;;;239.90;99.77;;;;;;;;;;4974999;28;20438;-48
2023/10/17 14:06:27;;;;;;;240.30;104.23;;;;;;;;;;4975217;28;20482;-47
2023/10/17 14:08:55;;;;;;;238.53;102.67;;;;;;;;;;4975408;28;20502;-47
2023/10/17 14:11:21;;;;;;;235.03;96.93;;;;;;;;;;4975201;28;20468;-48
2023/10/17 14:13:49;;;;;;;235.20;97.83;;;;;;;;;;4974679;28;20464;-46
2023/10/17 14:16:15;;;;;;;239.93;104.93;;;;;;;;;;4975162;28;20464;-47
2023/10/17 14:18:46;;;;;;;235.47;97.23;;;;;;;;;;4975317;28;20503;-47
2023/10/17 14:23:57;;;;;;;236.10;97.63;;;;;;;;;;4970044;28;20463;-46
2023/10/17 14:26:30;;;;;;;235.67;97.73;;;;;;;;;;4974791;28;20405;-48
2023/10/17 14:28:56;;;;;;;235.97;98.07;;;;;;;;;;4974848;28;20427;-48
2023/10/17 14:31:26;;;;;;;238.93;104.33;;;;;;;;;;4974836;28;20412;-47
2023/10/17 14:33:52;;;;;;;239.37;105.77;;;;;;;;;;4973836;28;20462;-47
2023/10/17 14:36:21;;;;;;;240.07;104.20;;;;;;;;;;4974765;28;20404;-47
2023/10/17 14:38:48;;;;;;;240.80;106.00;;;;;;;;;;4974925;28;20896;-47
2023/10/17 14:41:14;;;;;;;238.47;100.87;;;;;;;;;;4974678;28;20424;-48
2023/10/17 14:43:46;;;;;;;243.23;110.23;;;;;;;;;;4974275;28;20431;-49
2023/10/17 14:46:12;;;;;;;242.87;107.20;;;;;;;;;;4974720;28;20513;-48
2023/10/17 14:48:39;;;;;;;243.27;106.83;;;;;;;;;;4974514;28;20473;-47
2023/10/17 14:51:05;;;;;;;238.53;98.87;;;;;;;;;;4973979;28;20551;-47
2023/10/17 14:53:31;;;;;;;243.70;105.67;;;;;;;;;;4973911;28;20464;-46
2023/10/17 14:56:04;;;;;;;242.67;104.53;;;;;;;;;;4974818;28;20885;-47
2023/10/17 14:58:31;;;;;;;242.07;99.40;;;;;;;;;;4974506;28;20557;-48
2023/10/17 15:00:57;;;;;;;246.27;105.73;;;;;;;;;;4974610;28;20440;-47
2023/10/17 15:03:25;;;;;;;239.17;97.93;;;;;;;;;;4973957;28;20448;-47
2023/10/17 15:05:56;;;;;;;241.27;98.70;;;;;;;;;;4974294;28;20528;-48
2023/10/17 15:08:22;;;;;;;239.87;93.90;;;;;;;;;;4974179;28;20498;-47
2023/10/17 15:10:48;;;;;;;236.40;90.33;;;;;;;;;;4974472;28;20778;-47
2023/10/17 15:13:14;;;;;;;238.13;93.10;;;;;;;;;;4973755;28;20463;-47
2023/10/17 15:15:41;;;;;;;238.23;88.87;;;;;;;;;;4973885;28;20431;-47
2023/10/17 15:18:08;;;;;;;236.03;86.43;;;;;;;;;;4974115;28;20890;-47
2023/10/17 15:20:34;;;;;;;236.10;87.80;;;;;;;;;;4973946;28;20419;-47
2023/10/17 15:23:03;;;;;;;242.23;90.43;;;;;;;;;;4973391;28;20420;-48
2023/10/17 15:25:29;;;;;;;239.23;88.07;;;;;;;;;;4973709;28;20453;-47
2023/10/17 15:27:55;;;;;;;237.07;86.60;;;;;;;;;;4973944;28;20441;-46
2023/10/17 15:30:22;;;;;;;237.50;87.33;;;;;;;;;;4973749;28;20424;-47
2023/10/17 15:32:49;;;;;;;235.57;81.57;;;;;;;;;;4973692;28;20818;-47
2023/10/17 15:35:15;;;;;;;236.50;85.53;;;;;;;;;;4973514;28;20432;-47
2023/10/17 15:37:42;;;;;;;234.67;80.97;;;;;;;;;;4973410;28;20405;-46
2023/10/17 15:40:16;;;;;;;230.68;79.70;;;;;;;;;;4973553;28;20920;-46
2023/10/17 15:42:43;;;;;;;232.40;81.53;;;;;;;;;;4973242;28;20174;-47
2023/10/17 15:45:11;;;;;;;231.50;78.77;;;;;;;;;;4973293;28;20430;-47
2023/10/17 15:47:38;;;;;;;232.00;77.63;;;;;;;;;;4973343;28;20479;-46
2023/10/17 15:50:04;;;;;;;234.70;78.90;;;;;;;;;;4973333;28;20409;-47
2023/10/17 15:52:30;;;;;;;230.13;74.85;;;;;;;;;;4973058;28;20460;-46
2023/10/17 15:54:56;;;;;;;232.25;74.57;;;;;;;;;;4972940;28;20695;-46
2023/10/17 15:57:23;;;;;;;230.07;74.17;;;;;;;;;;4973292;28;20203;-46
2023/10/17 15:59:50;;;;;;;231.52;79.00;;;;;;;;;;4973126;28;20471;-46
2023/10/17 16:02:16;;;;;;;229.73;75.05;;;;;;;;;;4972246;28;20188;-46
2023/10/17 16:04:42;;;;;;;229.60;76.78;;;;;;;;;;4972672;28;20296;-46
2023/10/17 16:07:11;;;;;;;228.30;73.77;;;;;;;;;;4972960;28;20275;-46
2023/10/17 16:09:39;;;;;;;229.85;74.75;;;;;;;;;;4973028;28;20420;-46